Flight Track Log - Related Links

Times and Time Zones

All times are in EDT time to prevent confusion due to time zone crossing. See the CTL309 flight status page for this flight to view local times or setup timezone preferences in your user account.

Time Position Orientation Groundspeed Altitude Reporting Facility
EDT Latitude Longitude Course Direction KTS MPH feet Rate Location/Type
Tue 09:08:47 PM 39.0850 -83.4344 136° Southeast 132 152 4,700  Level Indianapolis Center
Tue 09:09:48 PM 39.0469 -83.3875 136° Southeast 152 175 5,400 590 Climbing Indianapolis Center
Tue 09:10:49 PM 39.0156 -83.3503 137° Southeast 153 176 5,900 439 Climbing Indianapolis Center
Tue 09:11:51 PM 38.9833 -83.3111 137° Southeast 158 182 6,300 439 Climbing Indianapolis Center
Tue 09:12:52 PM 38.9564 -83.2664 128° Southeast 158 182 6,800 393 Climbing Indianapolis Center
Tue 09:13:53 PM 38.9250 -83.2267 135° Southeast 160 184 7,100 344 Climbing Indianapolis Center
Tue 09:14:00 PM 38.9939 -83.2904 136° Southeast  Level Estimated
Tue 09:14:54 PM 38.8919 -83.1878 138° Southeast 160 184 7,500  Level Indianapolis Center
Tue 09:15:56 PM 38.8594 -83.1444 134° Southeast 157 181 7,900 341 Climbing Indianapolis Center
Tue 09:16:57 PM 38.8275 -83.1033 135° Southeast 162 186 8,200 344 Climbing Indianapolis Center
Tue 09:17:58 PM 38.7958 -83.0614 134° Southeast 164 189 8,600 393 Climbing Indianapolis Center
Tue 09:18:59 PM 38.7653 -83.0239 136° Southeast 153 176 9,000 195 Climbing Indianapolis Center
Tue 09:20:01 PM 38.7314 -82.9856 139° Southeast 162 186 9,000  Level Indianapolis Center
Tue 09:21:02 PM 38.6969 -82.9431 136° Southeast 169 194 9,000  Level Indianapolis Center
Tue 09:22:03 PM 38.6600 -82.9022 139° Southeast 172 198 9,000  Level Indianapolis Center
Tue 09:23:05 PM 38.6231 -82.8575 137° Southeast 171 197 9,000  Level Indianapolis Center
Tue 09:24:06 PM 38.5881 -82.8158 137° Southeast 172 198 9,000 49 Level Indianapolis Center
Tue 09:25:07 PM 38.5519 -82.7731 137° Southeast 174 200 9,100  Climbing Indianapolis Center
Tue 09:26:08 PM 38.5114 -82.7217 135° Southeast 175 201 9,000  Descending Indianapolis Center
Tue 09:27:09 PM 38.4769 -82.6811 137° Southeast 170 196 9,100  Climbing Indianapolis Center
Tue 09:28:11 PM 38.4394 -82.6425 141° Southeast 171 197 9,000 -49 Descending Indianapolis Center
Tue 09:29:12 PM 38.4033 -82.6003 137° Southeast 174 200 9,000 49 Level Indianapolis Center
Tue 09:30:13 PM 38.3694 -82.5578 135° Southeast 172 198 9,100 -49 Climbing Indianapolis Center
Tue 09:31:14 PM 38.3394 -82.5092 128° Southeast 172 198 8,900 -49 Descending Indianapolis Center
Tue 09:32:16 PM 38.3056 -82.4708 138° Southeast 175 201 9,000 49 Climbing Indianapolis Center
Tue 09:33:17 PM 38.2714 -82.4275 135° Southeast 173 199 9,000  Level Indianapolis Center
Tue 09:34:18 PM 38.2292 -82.3769 137° Southeast 174 200 9,000  Level Indianapolis Center
Tue 09:35:19 PM 38.1944 -82.3358 137° Southeast 172 198 9,000  Level Indianapolis Center
Tue 09:36:20 PM 38.1606 -82.2928 135° Southeast 172 198 9,000  Level Indianapolis Center
Tue 09:37:21 PM 38.1242 -82.2525 139° Southeast 173 199 9,000 49 Level Indianapolis Center
Tue 09:38:23 PM 38.0861 -82.2136 141° Southeast 168 193 9,100  Climbing Indianapolis Center
Tue 09:39:24 PM 38.0514 -82.1722 137° Southeast 170 196 9,000  Descending Indianapolis Center
Tue 09:40:25 PM 38.0194 -82.1325 136° Southeast 172 198 9,100 49 Climbing Indianapolis Center
Tue 09:41:26 PM 37.9853 -82.0894 135° Southeast 173 199 9,100 -49 Level Indianapolis Center
Tue 09:42:27 PM 37.9506 -82.0467 136° Southeast 174 200 9,000  Descending Indianapolis Center
Tue 09:43:28 PM 37.9164 -82.0050 136° Southeast 173 199 9,100 -49 Climbing Indianapolis Center
Tue 09:44:30 PM 37.8831 -81.9614 134° Southeast 173 199 8,900 -49 Descending Indianapolis Center
Tue 09:45:31 PM 37.8414 -81.9103 136° Southeast 174 200 9,000 49 Climbing Indianapolis Center
Tue 09:46:32 PM 37.8111 -81.8736 136° Southeast 172 198 9,000  Level Indianapolis Center
Tue 09:47:33 PM 37.7700 -81.8236 136° Southeast 174 200 9,000 49 Level Indianapolis Center
Tue 09:48:34 PM 37.7358 -81.7797 135° Southeast 174 200 9,100 49 Climbing Indianapolis Center
Tue 09:49:35 PM 37.7011 -81.7361 135° Southeast 175 201 9,100 -49 Level Indianapolis Center
Tue 09:50:36 PM 37.6672 -81.6928 135° Southeast 173 199 9,000 -49 Descending Indianapolis Center
Tue 09:51:37 PM 37.6294 -81.6536 141° Southeast 174 200 9,000 -443 Level Indianapolis Center
Tue 09:52:38 PM 37.5922 -81.6039 133° Southeast 190 219 8,100 -878 Descending Indianapolis Center
Tue 09:53:40 PM 37.5539 -81.5517 133° Southeast 200 230 7,200 -927 Descending Indianapolis Center
Tue 09:54:41 PM 37.5136 -81.4983 134° Southeast 197 227 6,200 -590 Descending Indianapolis Center
Tue 09:55:42 PM 37.4783 -81.4525 134° Southeast 190 219 6,000 -197 Descending Indianapolis Center

Login

Don't have an account? Register now (free) for customized features, flight alerts, and more!